Darstellungsparameter: Aktuell verwendete Einstellungen:
Skalierung der Graphiken ... ?
xyx+y,   Skalierungsfaktor:      Skalierung: Modus: x, Faktor: 1
Darstellungszeitraum ... ?
Vom - - bis: - -   Zeitraum: 30.08.2010 - 29.09.2010
Min/Max/Avg-Anzeige ... ?
Zeige MMA aktuell
Zeige MMA Monat
Zeige MMA alles
Zeige --A aktuell
Zeige --A Monat
Zeige --A alles
Keine MMA-Anzeige
MMA:
Average (ber die Originaldaten)
MMA-Basis: 23.02.2003 - 30.09.2020
Quicknavigation für Darstellung... ?
Tage:      1T, 2T, 3T, 5T -1T -2T -3T -5T +1T +2T +3T +5T
Wochen: 1W, 2W, 3W -1W -2W -3W +1W +2W +3W
Monate: 1M, 3M, 6M -1M -3M -6M +1M +3M +6M
Jahre:    1J, 3J, 5J, 10J -1J -3J -5J -10J +1J +3J +5J +10J
Nutze für die Darstellung ... ?
Originaldaten oder ...
Mittelwerte Minima Maxima auf...
Stundenbasis Tagesbasis Wochenbasis
Monatsbasis Jahresbasis      Datenbasis: Mittelwerte auf Stundenbasis
Darstellen als:
Statistik (Auto) Statistik J:M      Darstellung:
Zur Graphik,    zurück zur Übersicht aller Sensoren.
 
Tabellarische Datenbersicht: ?
 
Sensor: Nr:Datum:Temp:Abs-Feuchte:Windchill:Wind:
Aussen-T/F 1 30-08-2010 00:00:00 9.2 C 7.98 g/m*3 9.2 C 0 km/h
2 30-08-2010 01:00:00 9.94 C 7.84 g/m*3 9.94 C 0 km/h
3 30-08-2010 02:00:00 10.52 C 7.77 g/m*3 10.52 C 0 km/h
4 30-08-2010 03:00:00 10.82 C 7.66 g/m*3 10.82 C 0 km/h
5 30-08-2010 04:00:00 10.26 C 7.99 g/m*3 10.26 C 0 km/h
6 30-08-2010 05:00:00 9.62 C 8.02 g/m*3 9.62 C 0 km/h
7 30-08-2010 06:00:00 10.06 C 8.47 g/m*3 10.06 C 0 km/h
8 30-08-2010 07:00:00 9.96 C 8.4 g/m*3 9.96 C 0 km/h
9 30-08-2010 08:00:00 10.82 C 8.63 g/m*3 10.82 C 0 km/h
10 30-08-2010 09:00:00 10.98 C 8.64 g/m*3 10.98 C 0 km/h
11 30-08-2010 10:00:00 11.86 C 8.83 g/m*3 11.86 C 0 km/h
12 30-08-2010 11:00:00 13 C 8.32 g/m*3 13 C 0 km/h
13 30-08-2010 12:00:00 14.02 C 7.63 g/m*3 14.02 C 0 km/h
14 30-08-2010 13:00:00 16.04 C 6.77 g/m*3 16.04 C 0 km/h
15 30-08-2010 14:00:00 16.28 C 7.73 g/m*3 16.28 C 0 km/h
16 30-08-2010 15:00:00 17.48 C 7.8 g/m*3 17.48 C 0 km/h
17 30-08-2010 16:00:00 15.86 C 9.16 g/m*3 15.86 C 0 km/h
18 30-08-2010 17:00:00 15.04 C 9.23 g/m*3 15.04 C 0 km/h
19 30-08-2010 18:00:00 14.32 C 8.76 g/m*3 14.32 C 0 km/h
20 30-08-2010 19:00:00 14.04 C 8.97 g/m*3 14.04 C 0 km/h
21 30-08-2010 20:00:00 13.76 C 8.72 g/m*3 13.76 C 0 km/h
22 30-08-2010 21:00:00 12.72 C 9.56 g/m*3 12.72 C 0 km/h
23 30-08-2010 22:00:00 12.72 C 9.92 g/m*3 12.72 C 0 km/h
24 30-08-2010 23:00:00 12.3 C 9.69 g/m*3 12.3 C 0 km/h
25 31-08-2010 00:00:00 12.22 C 9.62 g/m*3 12.22 C 0 km/h
Sensor: Nr:Datum:Temp:Abs-Feuchte:Windchill:Wind:
Aussen-T/F 26 31-08-2010 01:00:00 12.42 C 9.45 g/m*3 12.42 C 0 km/h
27 31-08-2010 02:00:00 12.36 C 9.31 g/m*3 12.36 C 0 km/h
28 31-08-2010 03:00:00 12.1 C 9.07 g/m*3 12.1 C 0 km/h
29 31-08-2010 04:00:00 11.52 C 9.06 g/m*3 11.52 C 0 km/h
30 31-08-2010 05:00:00 11.38 C 9.04 g/m*3 11.38 C 0 km/h
31 31-08-2010 06:00:00 11.7 C 9.22 g/m*3 11.7 C 0 km/h
32 31-08-2010 07:00:00 12.2 C 9.09 g/m*3 12.2 C 0 km/h
33 31-08-2010 08:00:00 12.64 C 9.07 g/m*3 12.64 C 0 km/h
34 31-08-2010 09:00:00 13.58 C 8.86 g/m*3 13.58 C 0 km/h
35 31-08-2010 10:00:00 14.14 C 8.35 g/m*3 14.14 C 0 km/h
36 31-08-2010 11:00:00 15.6 C 8.09 g/m*3 15.6 C 0 km/h
37 31-08-2010 12:00:00 16.88 C 7.93 g/m*3 16.88 C 0 km/h
38 31-08-2010 13:00:00 17.96 C 6.99 g/m*3 17.96 C 0 km/h
39 31-08-2010 14:00:00 20.16 C 6.45 g/m*3 20.16 C 0 km/h
40 31-08-2010 15:00:00 21.2 C 5.86 g/m*3 21.2 C 0 km/h
41 31-08-2010 16:00:00 21.46 C 5.64 g/m*3 21.46 C 0 km/h
42 31-08-2010 17:00:00 21.82 C 5.57 g/m*3 21.82 C 0 km/h
43 31-08-2010 18:00:00 22.26 C 5.67 g/m*3 22.26 C 0 km/h
44 31-08-2010 19:00:00 20.32 C 6.55 g/m*3 20.32 C 0 km/h
45 31-08-2010 20:00:00 16.38 C 7.17 g/m*3 16.38 C 0 km/h
46 31-08-2010 21:00:00 14.44 C 7.61 g/m*3 14.44 C 0 km/h
47 31-08-2010 22:00:00 13.24 C 8.1 g/m*3 13.24 C 0 km/h
48 31-08-2010 23:00:00 12.32 C 8.09 g/m*3 12.32 C 0 km/h
49 01-09-2010 00:00:00 11.58 C 8.08 g/m*3 11.58 C 0 km/h
50 01-09-2010 01:00:00 10.98 C 8.1 g/m*3 10.98 C 0 km/h
Sensor: Nr:Datum:Temp:Abs-Feuchte:Windchill:Wind:
Aussen-T/F 51 01-09-2010 02:00:00 10.36 C 7.96 g/m*3 10.36 C 0 km/h
52 01-09-2010 03:00:00 9.74 C 7.97 g/m*3 9.74 C 0 km/h
53 01-09-2010 04:00:00 9.14 C 7.86 g/m*3 9.14 C 0 km/h
54 01-09-2010 05:00:00 8.92 C 7.95 g/m*3 8.92 C 0 km/h
55 01-09-2010 06:00:00 8.94 C 8.04 g/m*3 8.94 C 0 km/h
56 01-09-2010 07:00:00 9.02 C 7.98 g/m*3 9.02 C 0 km/h
57 01-09-2010 08:00:00 9.26 C 8.05 g/m*3 9.26 C 0 km/h
58 01-09-2010 09:00:00 10.22 C 8.14 g/m*3 10.22 C 0 km/h
59 01-09-2010 10:00:00 12.1 C 8.56 g/m*3 12.1 C 0 km/h
60 01-09-2010 11:00:00 14.26 C 8.78 g/m*3 14.26 C 0 km/h
61 01-09-2010 12:00:00 17.24 C 8.54 g/m*3 17.24 C 0 km/h
62 01-09-2010 13:00:00 19.52 C 7.96 g/m*3 19.52 C 0 km/h
63 01-09-2010 14:00:00 21.18 C 7.03 g/m*3 21.18 C 0 km/h
64 01-09-2010 15:00:00 23.6 C 6 g/m*3 23.6 C 0 km/h
65 01-09-2010 16:00:00 23.8 C 6.02 g/m*3 23.8 C 0 km/h
66 01-09-2010 17:00:00 22.04 C 6.38 g/m*3 22.04 C 0 km/h
67 01-09-2010 18:00:00 21.1 C 6.96 g/m*3 21.1 C 0 km/h
68 01-09-2010 19:00:00 19.62 C 7.88 g/m*3 19.62 C 0 km/h
69 01-09-2010 20:00:00 17.36 C 8.72 g/m*3 17.36 C 0 km/h
70 01-09-2010 21:00:00 16.24 C 8.85 g/m*3 16.24 C 0 km/h
71 01-09-2010 22:00:00 15.55 C 8.82 g/m*3 15.55 C 0 km/h
72 01-09-2010 23:00:00 14.16 C 8.28 g/m*3 14.16 C 0 km/h
73 02-09-2010 00:00:00 13.02 C 8.22 g/m*3 13.02 C 0 km/h
74 02-09-2010 01:00:00 12.32 C 8.37 g/m*3 12.32 C 0 km/h
75 02-09-2010 02:00:00 11.6 C 8.56 g/m*3 11.6 C 0 km/h
Sensor: Nr:Datum:Temp:Abs-Feuchte:Windchill:Wind:
Aussen-T/F 76 02-09-2010 03:00:00 11 C 8.31 g/m*3 11 C 0 km/h
77 02-09-2010 04:00:00 10.44 C 8.29 g/m*3 10.44 C 0 km/h
78 02-09-2010 05:00:00 10.32 C 8.5 g/m*3 10.32 C 0 km/h
79 02-09-2010 06:00:00 10.34 C 8.6 g/m*3 10.34 C 0 km/h
80 02-09-2010 07:00:00 10.68 C 8.81 g/m*3 10.68 C 0 km/h
81 02-09-2010 08:00:00 11.34 C 8.96 g/m*3 11.34 C 0 km/h
82 02-09-2010 09:00:00 12.4 C 8.98 g/m*3 12.4 C 0 km/h
83 02-09-2010 10:00:00 14.02 C 8.65 g/m*3 14.02 C 0 km/h
84 02-09-2010 11:00:00 15.46 C 9.02 g/m*3 15.46 C 0 km/h
85 02-09-2010 12:00:00 18.66 C 8.75 g/m*3 18.66 C 0 km/h
86 02-09-2010 13:00:00 20.84 C 7.37 g/m*3 20.84 C 0 km/h
87 02-09-2010 14:00:00 22.2 C 7.22 g/m*3 22.2 C 0 km/h
88 02-09-2010 15:00:00 21.42 C 6.91 g/m*3 21.42 C 0 km/h
89 02-09-2010 16:00:00 20.6 C 6.91 g/m*3 20.6 C 0 km/h
90 02-09-2010 17:00:00 19.54 C 7.13 g/m*3 19.54 C 0 km/h
91 02-09-2010 18:00:00 18.66 C 7.41 g/m*3 18.66 C 0 km/h
92 02-09-2010 19:00:00 17.64 C 8.93 g/m*3 17.64 C 0 km/h
93 02-09-2010 20:00:00 15.14 C 10.01 g/m*3 15.14 C 0 km/h
94 02-09-2010 21:00:00 14.42 C 9.85 g/m*3 14.42 C 0 km/h
95 02-09-2010 22:00:00 13.84 C 9.34 g/m*3 13.84 C 0 km/h
96 02-09-2010 23:00:00 12.98 C 9.2 g/m*3 12.98 C 0 km/h
97 03-09-2010 00:00:00 12.42 C 9.1 g/m*3 12.42 C 0 km/h
98 03-09-2010 01:00:00 11.82 C 8.92 g/m*3 11.82 C 0 km/h
99 03-09-2010 02:00:00 11.24 C 8.76 g/m*3 11.24 C 0 km/h
100 03-09-2010 03:00:00 10.72 C 8.63 g/m*3 10.72 C 0 km/h
Sensor: Nr:Datum:Temp:Abs-Feuchte:Windchill:Wind:
Aussen-T/F 101 03-09-2010 04:00:00 10.34 C 8.6 g/m*3 10.34 C 0 km/h
102 03-09-2010 05:00:00 10.4 C 8.75 g/m*3 10.4 C 0 km/h
103 03-09-2010 06:00:00 11.08 C 9.24 g/m*3 11.08 C 0 km/h
104 03-09-2010 07:00:00 11.36 C 9.32 g/m*3 11.36 C 0 km/h
105 03-09-2010 08:00:00 11.64 C 9.34 g/m*3 11.64 C 0 km/h
106 03-09-2010 09:00:00 12.44 C 9.29 g/m*3 12.44 C 0 km/h
107 03-09-2010 10:00:00 13.58 C 9.22 g/m*3 13.58 C 0 km/h
108 03-09-2010 11:00:00 15.9 C 8.94 g/m*3 15.9 C 0 km/h
109 03-09-2010 12:00:00 17.86 C 8.47 g/m*3 17.86 C 0 km/h
110 03-09-2010 13:00:00 19.68 C 8.18 g/m*3 19.68 C 0 km/h
111 03-09-2010 14:00:00 20.4 C 7.64 g/m*3 20.4 C 0 km/h
112 03-09-2010 15:00:00 22.78 C 7.02 g/m*3 22.78 C 0 km/h
113 03-09-2010 16:00:00 25.12 C 6.58 g/m*3 25.12 C 0 km/h
114 03-09-2010 17:00:00 24.12 C 6.53 g/m*3 24.12 C 0 km/h
115 03-09-2010 18:00:00 22.7 C 8.12 g/m*3 22.7 C 0 km/h
116 03-09-2010 19:00:00 20.7 C 8.86 g/m*3 20.7 C 0 km/h
117 03-09-2010 20:00:00 18.62 C 8.25 g/m*3 18.62 C 0 km/h
118 03-09-2010 21:00:00 16.32 C 8.56 g/m*3 16.32 C 0 km/h
119 03-09-2010 22:00:00 15.36 C 8.86 g/m*3 15.36 C 0 km/h
120 03-09-2010 23:00:00 15.34 C 9.22 g/m*3 15.34 C 0 km/h
121 04-09-2010 00:00:00 15.1 C 9.29 g/m*3 15.1 C 0 km/h
122 04-09-2010 01:00:00 14.82 C 9.41 g/m*3 14.82 C 0 km/h
123 04-09-2010 02:00:00 14.28 C 9.4 g/m*3 14.28 C 0 km/h
124 04-09-2010 03:00:00 13.72 C 9.41 g/m*3 13.72 C 0 km/h
125 04-09-2010 04:00:00 13.2 C 9.48 g/m*3 13.2 C 0 km/h
Sensor: Nr:Datum:Temp:Abs-Feuchte:Windchill:Wind:
Aussen-T/F 126 04-09-2010 05:00:00 13.1 C 9.59 g/m*3 13.1 C 0 km/h
127 04-09-2010 06:00:00 12.54 C 9.3 g/m*3 12.54 C 0 km/h
128 04-09-2010 07:00:00 12.08 C 9.25 g/m*3 12.08 C 0 km/h
129 04-09-2010 08:00:00 12.8 C 9.77 g/m*3 12.8 C 0 km/h
130 04-09-2010 09:00:00 14.44 C 9.96 g/m*3 14.44 C 0 km/h
131 04-09-2010 10:00:00 16.3 C 9.49 g/m*3 16.3 C 0 km/h
132 04-09-2010 11:00:00 18.88 C 8.77 g/m*3 18.88 C 0 km/h
133 04-09-2010 12:00:00 18.86 C 7.89 g/m*3 18.86 C 0 km/h
134 04-09-2010 13:00:00 19.58 C 7.62 g/m*3 19.58 C 0 km/h
135 04-09-2010 14:00:00 22.2 C 6.71 g/m*3 22.2 C 0 km/h
136 04-09-2010 15:00:00 22.88 C 6.29 g/m*3 22.88 C 0 km/h
137 04-09-2010 16:00:00 22.42 C 5.53 g/m*3 22.42 C 0 km/h
138 04-09-2010 17:00:00 23.12 C 4.88 g/m*3 23.12 C 0 km/h
139 04-09-2010 18:00:00 22.74 C 4.37 g/m*3 22.74 C 0 km/h
140 04-09-2010 19:00:00 19.74 C 5.55 g/m*3 19.74 C 0 km/h
141 04-09-2010 20:00:00 16.14 C 6.54 g/m*3 16.14 C 0 km/h
142 04-09-2010 21:00:00 14.92 C 6.94 g/m*3 14.92 C 0 km/h
143 04-09-2010 22:00:00 14.16 C 7.26 g/m*3 14.16 C 0 km/h
144 04-09-2010 23:00:00 13.12 C 7.59 g/m*3 13.12 C 0 km/h
145 05-09-2010 00:00:00 12.16 C 7.62 g/m*3 12.16 C 0 km/h
146 05-09-2010 01:00:00 11.22 C 7.53 g/m*3 11.22 C 0 km/h
147 05-09-2010 02:00:00 10.44 C 7.52 g/m*3 10.44 C 0 km/h
148 05-09-2010 03:00:00 9.72 C 7.4 g/m*3 9.72 C 0 km/h
149 05-09-2010 04:00:00 9.12 C 7.27 g/m*3 9.12 C 0 km/h
150 05-09-2010 05:00:00 8.64 C 7.27 g/m*3 8.64 C 0 km/h
Sensor: Nr:Datum:Temp:Abs-Feuchte:Windchill:Wind:
Aussen-T/F 151 05-09-2010 06:00:00 8.08 C 7.25 g/m*3 8.08 C 0 km/h
152 05-09-2010 07:00:00 8.4 C 7.52 g/m*3 8.4 C 0 km/h
153 05-09-2010 08:00:00 9.82 C 7.91 g/m*3 9.82 C 0 km/h
154 05-09-2010 09:00:00 11.1 C 7.88 g/m*3 11.1 C 0 km/h
155 05-09-2010 10:00:00 12.36 C 8.44 g/m*3 12.36 C 0 km/h
156 05-09-2010 11:00:00 15.42 C 8.16 g/m*3 15.42 C 0 km/h
157 05-09-2010 12:00:00 18.02 C 6.52 g/m*3 18.02 C 0 km/h
158 05-09-2010 13:00:00 20.14 C 5.92 g/m*3 20.14 C 0 km/h
159 05-09-2010 14:00:00 23.5 C 5.2 g/m*3 23.5 C 0 km/h
160 05-09-2010 15:00:00 24.16 C 4.83 g/m*3 24.16 C 0 km/h
161 05-09-2010 16:00:00 24.4 C 4.67 g/m*3 24.4 C 0 km/h
162 05-09-2010 17:00:00 24.6 C 5.04 g/m*3 24.6 C 0 km/h
163 05-09-2010 18:00:00 24.84 C 5.29 g/m*3 24.84 C 0 km/h
164 05-09-2010 19:00:00 19.38 C 6.4 g/m*3 19.38 C 0 km/h
165 05-09-2010 20:00:00 16.44 C 6.38 g/m*3 16.44 C 0 km/h
166 05-09-2010 21:00:00 14.9 C 6.81 g/m*3 14.9 C 0 km/h
167 05-09-2010 22:00:00 14.12 C 7.1 g/m*3 14.12 C 0 km/h
168 05-09-2010 23:00:00 13.94 C 6.92 g/m*3 13.94 C 0 km/h
169 06-09-2010 00:00:00 13.22 C 7.08 g/m*3 13.22 C 0 km/h
170 06-09-2010 01:00:00 12.36 C 7.11 g/m*3 12.36 C 0 km/h
171 06-09-2010 02:00:00 11.62 C 7.2 g/m*3 11.62 C 0 km/h
172 06-09-2010 03:00:00 11.1 C 7.15 g/m*3 11.1 C 0 km/h
173 06-09-2010 04:00:00 10.7 C 7.09 g/m*3 10.7 C 0 km/h
174 06-09-2010 05:00:00 10.24 C 7.02 g/m*3 10.24 C 0 km/h
175 06-09-2010 06:00:00 9.56 C 7 g/m*3 9.56 C 0 km/h
Sensor: Nr:Datum:Temp:Abs-Feuchte:Windchill:Wind:
Aussen-T/F 176 06-09-2010 07:00:00 9.28 C 7.07 g/m*3 9.28 C 0 km/h
177 06-09-2010 08:00:00 9.68 C 7.22 g/m*3 9.68 C 0 km/h
178 06-09-2010 09:00:00 10.94 C 7.52 g/m*3 10.94 C 0 km/h
179 06-09-2010 10:00:00 13.48 C 7.52 g/m*3 13.48 C 0 km/h
180 06-09-2010 11:00:00 16.32 C 7.14 g/m*3 16.32 C 0 km/h
181 06-09-2010 12:00:00 18.64 C 5.58 g/m*3 18.64 C 0 km/h
182 06-09-2010 13:00:00 20.24 C 5.4 g/m*3 20.24 C 0 km/h
183 06-09-2010 14:00:00 22.34 C 4.51 g/m*3 22.34 C 0 km/h
184 06-09-2010 15:00:00 24 C 4.35 g/m*3 24 C 0 km/h
185 06-09-2010 16:00:00 23.88 C 4.32 g/m*3 23.88 C 0 km/h
186 06-09-2010 17:00:00 24.42 C 4.46 g/m*3 24.42 C 0 km/h
187 06-09-2010 18:00:00 21.44 C 5.34 g/m*3 21.44 C 0 km/h
188 06-09-2010 19:00:00 18.72 C 5.87 g/m*3 18.72 C 0 km/h
189 06-09-2010 20:00:00 17.1 C 5.62 g/m*3 17.1 C 0 km/h
190 06-09-2010 21:00:00 16.22 C 5.44 g/m*3 16.22 C 0 km/h
191 06-09-2010 22:00:00 15.5 C 5.6 g/m*3 15.5 C 0 km/h
192 06-09-2010 23:00:00 15.2 C 5.63 g/m*3 15.2 C 0 km/h
193 07-09-2010 00:00:00 15.38 C 5.51 g/m*3 15.38 C 0 km/h
194 07-09-2010 01:00:00 15.42 C 5.39 g/m*3 15.42 C 0 km/h
195 07-09-2010 02:00:00 15.46 C 5.38 g/m*3 15.46 C 0 km/h
196 07-09-2010 03:00:00 14.34 C 6.03 g/m*3 14.34 C 0 km/h
197 07-09-2010 04:00:00 13.06 C 7.01 g/m*3 13.06 C 0 km/h
198 07-09-2010 05:00:00 12.98 C 7.11 g/m*3 12.98 C 0 km/h
199 07-09-2010 06:00:00 12.5 C 7.04 g/m*3 12.5 C 0 km/h
200 07-09-2010 07:00:00 12.12 C 7.09 g/m*3 12.12 C 0 km/h
Sensor: Nr:Datum:Temp:Abs-Feuchte:Windchill:Wind:
Aussen-T/F 201 07-09-2010 08:00:00 11.56 C 8.11 g/m*3 11.56 C 0 km/h
202 07-09-2010 09:00:00 11.46 C 8.41 g/m*3 11.46 C 0 km/h
203 07-09-2010 10:00:00 11.46 C 8.88 g/m*3 11.46 C 0 km/h
204 07-09-2010 11:00:00 11.64 C 9.21 g/m*3 11.64 C 0 km/h
205 07-09-2010 12:00:00 12.42 C 9.5 g/m*3 12.42 C 0 km/h
206 07-09-2010 13:00:00 12.78 C 9.31 g/m*3 12.78 C 0 km/h
207 07-09-2010 14:00:00 13.36 C 9.37 g/m*3 13.36 C 0 km/h
208 07-09-2010 15:00:00 14.58 C 9.12 g/m*3 14.58 C 0 km/h
209 07-09-2010 16:00:00 15.52 C 9.11 g/m*3 15.52 C 0 km/h
210 07-09-2010 17:00:00 14.88 C 9.06 g/m*3 14.88 C 0 km/h
211 07-09-2010 18:00:00 13.98 C 9.08 g/m*3 13.98 C 0 km/h
212 07-09-2010 19:00:00 13.78 C 9.38 g/m*3 13.78 C 0 km/h
213 07-09-2010 20:00:00 13.24 C 9.55 g/m*3 13.24 C 0 km/h
214 07-09-2010 21:00:00 12.96 C 9.89 g/m*3 12.96 C 0 km/h
215 07-09-2010 22:00:00 12.86 C 10.03 g/m*3 12.86 C 0 km/h
216 07-09-2010 23:00:00 12.92 C 10.16 g/m*3 12.92 C 0 km/h
217 08-09-2010 00:00:00 12.88 C 10.24 g/m*3 12.88 C 0 km/h
218 08-09-2010 01:00:00 13 C 10.37 g/m*3 13 C 0 km/h
219 08-09-2010 02:00:00 13.2 C 10.61 g/m*3 13.2 C 0 km/h
220 08-09-2010 03:00:00 13.56 C 10.92 g/m*3 13.56 C 0 km/h
221 08-09-2010 04:00:00 13.56 C 10.92 g/m*3 13.56 C 0 km/h
222 08-09-2010 05:00:00 14.16 C 11.4 g/m*3 14.16 C 0 km/h
223 08-09-2010 06:00:00 14.36 C 11.44 g/m*3 14.36 C 0 km/h
224 08-09-2010 07:00:00 14.22 C 11.25 g/m*3 14.22 C 0 km/h
225 08-09-2010 08:00:00 14.22 C 11.25 g/m*3 14.22 C 0 km/h
Sensor: Nr:Datum:Temp:Abs-Feuchte:Windchill:Wind:
Aussen-T/F 226 08-09-2010 09:00:00 15.22 C 11.62 g/m*3 15.22 C 0 km/h
227 08-09-2010 10:00:00 15.52 C 11.41 g/m*3 15.52 C 0 km/h
228 08-09-2010 11:00:00 15.24 C 11.03 g/m*3 15.24 C 0 km/h
229 08-09-2010 12:00:00 14.74 C 11.26 g/m*3 14.74 C 0 km/h
230 08-09-2010 13:00:00 16.22 C 12.12 g/m*3 16.22 C 0 km/h
231 08-09-2010 14:00:00 17.58 C 11.56 g/m*3 17.58 C 0 km/h
232 08-09-2010 15:00:00 17.94 C 11.17 g/m*3 17.94 C 0 km/h
233 08-09-2010 16:00:00 18.54 C 10.69 g/m*3 18.54 C 0 km/h
234 08-09-2010 17:00:00 19.88 C 10.23 g/m*3 19.88 C 0 km/h
235 08-09-2010 18:00:00 19.06 C 10.24 g/m*3 19.06 C 0 km/h
236 08-09-2010 19:00:00 18.2 C 10.54 g/m*3 18.2 C 0 km/h
237 08-09-2010 20:00:00 16.8 C 10.52 g/m*3 16.8 C 0 km/h
238 08-09-2010 21:00:00 15.72 C 9.7 g/m*3 15.72 C 0 km/h
239 08-09-2010 22:00:00 14.78 C 9.79 g/m*3 14.78 C 0 km/h
240 08-09-2010 23:00:00 14.48 C 10.01 g/m*3 14.48 C 0 km/h
241 09-09-2010 00:00:00 14.38 C 10.2 g/m*3 14.38 C 0 km/h
242 09-09-2010 01:00:00 15.04 C 10.08 g/m*3 15.04 C 0 km/h
243 09-09-2010 02:00:00 15.14 C 9.93 g/m*3 15.14 C 0 km/h
244 09-09-2010 03:00:00 15.32 C 9.78 g/m*3 15.32 C 0 km/h
245 09-09-2010 04:00:00 15.22 C 9.33 g/m*3 15.22 C 0 km/h
246 09-09-2010 05:00:00 14.9 C 9.02 g/m*3 14.9 C 0 km/h
247 09-09-2010 06:00:00 14.78 C 8.88 g/m*3 14.78 C 0 km/h
248 09-09-2010 07:00:00 14.58 C 9.07 g/m*3 14.58 C 0 km/h
249 09-09-2010 08:00:00 14.8 C 9.1 g/m*3 14.8 C 0 km/h
250 09-09-2010 09:00:00 15.26 C 9.09 g/m*3 15.26 C 0 km/h
Sensor: Nr:Datum:Temp:Abs-Feuchte:Windchill:Wind:
Aussen-T/F 251 09-09-2010 10:00:00 16.76 C 9.1 g/m*3 16.76 C 0 km/h
252 09-09-2010 11:00:00 17.78 C 8.88 g/m*3 17.78 C 0 km/h
253 09-09-2010 12:00:00 18.64 C 8.17 g/m*3 18.64 C 0 km/h
254 09-09-2010 13:00:00 18.8 C 8.21 g/m*3 18.8 C 0 km/h
255 09-09-2010 14:00:00 18.98 C 8.59 g/m*3 18.98 C 0 km/h
256 09-09-2010 15:00:00 19.38 C 9.13 g/m*3 19.38 C 0 km/h
257 09-09-2010 16:00:00 17.1 C 10.92 g/m*3 17.1 C 0 km/h
258 09-09-2010 17:00:00 17.92 C 11.62 g/m*3 17.92 C 0 km/h
259 09-09-2010 18:00:00 17.7 C 10.47 g/m*3 17.7 C 0 km/h
260 09-09-2010 19:00:00 16.54 C 9.46 g/m*3 16.54 C 0 km/h
261 09-09-2010 20:00:00 15.4 C 9.78 g/m*3 15.4 C 0 km/h
262 09-09-2010 21:00:00 14.8 C 10.26 g/m*3 14.8 C 0 km/h
263 09-09-2010 22:00:00 14.74 C 10.17 g/m*3 14.74 C 0 km/h
264 09-09-2010 23:00:00 14.98 C 9.71 g/m*3 14.98 C 0 km/h
265 10-09-2010 00:00:00 14.66 C 9.92 g/m*3 14.66 C 0 km/h
266 10-09-2010 01:00:00 14 C 9.77 g/m*3 14 C 0 km/h
267 10-09-2010 02:00:00 13.9 C 9.95 g/m*3 13.9 C 0 km/h
268 10-09-2010 03:00:00 13.9 C 10.07 g/m*3 13.9 C 0 km/h
269 10-09-2010 04:00:00 13.84 C 10.25 g/m*3 13.84 C 0 km/h
270 10-09-2010 05:00:00 13.06 C 9.99 g/m*3 13.06 C 0 km/h
271 10-09-2010 06:00:00 13.12 C 10.24 g/m*3 13.12 C 0 km/h
272 10-09-2010 07:00:00 13.18 C 9.84 g/m*3 13.18 C 0 km/h
273 10-09-2010 08:00:00 13.32 C 9.95 g/m*3 13.32 C 0 km/h
274 10-09-2010 09:00:00 14.6 C 9.54 g/m*3 14.6 C 0 km/h
275 10-09-2010 10:00:00 16.16 C 9.35 g/m*3 16.16 C 0 km/h
Sensor: Nr:Datum:Temp:Abs-Feuchte:Windchill:Wind:
Aussen-T/F 276 10-09-2010 11:00:00 17.88 C 9.21 g/m*3 17.88 C 0 km/h
277 10-09-2010 12:00:00 18.74 C 9.18 g/m*3 18.74 C 0 km/h
278 10-09-2010 13:00:00 19.18 C 8.66 g/m*3 19.18 C 0 km/h
279 10-09-2010 14:00:00 19.94 C 8.75 g/m*3 19.94 C 0 km/h
280 10-09-2010 15:00:00 20.82 C 8.59 g/m*3 20.82 C 0 km/h
281 10-09-2010 16:00:00 21.1 C 8.44 g/m*3 21.1 C 0 km/h
282 10-09-2010 17:00:00 20.18 C 8.98 g/m*3 20.18 C 0 km/h
283 10-09-2010 18:00:00 17.86 C 10.21 g/m*3 17.86 C 0 km/h
284 10-09-2010 19:00:00 16.26 C 11.43 g/m*3 16.26 C 0 km/h
285 10-09-2010 20:00:00 15.68 C 11.57 g/m*3 15.68 C 0 km/h
286 10-09-2010 21:00:00 15.8 C 11.68 g/m*3 15.8 C 0 km/h
287 10-09-2010 22:00:00 15.68 C 11.44 g/m*3 15.68 C 0 km/h
288 10-09-2010 23:00:00 15.46 C 11.18 g/m*3 15.46 C 0 km/h
289 11-09-2010 00:00:00 15.14 C 10.86 g/m*3 15.14 C 0 km/h
290 11-09-2010 01:00:00 15 C 10.8 g/m*3 15 C 0 km/h
291 11-09-2010 02:00:00 14.74 C 10.73 g/m*3 14.74 C 0 km/h
292 11-09-2010 03:00:00 14.08 C 10.42 g/m*3 14.08 C 0 km/h
293 11-09-2010 04:00:00 13.14 C 9.86 g/m*3 13.14 C 0 km/h
294 11-09-2010 05:00:00 12.64 C 9.78 g/m*3 12.64 C 0 km/h
295 11-09-2010 06:00:00 12.74 C 9.91 g/m*3 12.74 C 0 km/h
296 11-09-2010 07:00:00 12.16 C 9.54 g/m*3 12.16 C 0 km/h
297 11-09-2010 08:00:00 13.04 C 10.23 g/m*3 13.04 C 0 km/h
298 11-09-2010 09:00:00 13.76 C 10.55 g/m*3 13.76 C 0 km/h
299 11-09-2010 10:00:00 15.66 C 11.32 g/m*3 15.66 C 0 km/h
300 11-09-2010 11:00:00 18.24 C 11.37 g/m*3 18.24 C 0 km/h
Sensor: Nr:Datum:Temp:Abs-Feuchte:Windchill:Wind:
Aussen-T/F 301 11-09-2010 12:00:00 19.9 C 9.59 g/m*3 19.9 C 0 km/h
302 11-09-2010 13:00:00 21.76 C 8.81 g/m*3 21.76 C 0 km/h
303 11-09-2010 14:00:00 24.2 C 8.14 g/m*3 24.2 C 0 km/h
304 11-09-2010 15:00:00 26.04 C 7.86 g/m*3 26.04 C 0 km/h
305 11-09-2010 16:00:00 26.34 C 8.19 g/m*3 26.34 C 0 km/h
306 11-09-2010 17:00:00 27.62 C 8.31 g/m*3 27.62 C 0 km/h
307 11-09-2010 18:00:00 26.06 C 9.28 g/m*3 26.06 C 0 km/h
308 11-09-2010 19:00:00 21.76 C 9.72 g/m*3 21.76 C 0 km/h
309 11-09-2010 20:00:00 19.34 C 9.51 g/m*3 19.34 C 0 km/h
310 11-09-2010 21:00:00 18.1 C 10.01 g/m*3 18.1 C 0 km/h
311 11-09-2010 22:00:00 17.2 C 10.28 g/m*3 17.2 C 0 km/h
312 11-09-2010 23:00:00 16.56 C 10.4 g/m*3 16.56 C 0 km/h
313 12-09-2010 00:00:00 16.06 C 10.42 g/m*3 16.06 C 0 km/h
314 12-09-2010 01:00:00 15.34 C 10.34 g/m*3 15.34 C 0 km/h
315 12-09-2010 02:00:00 14.88 C 10.39 g/m*3 14.88 C 0 km/h
316 12-09-2010 03:00:00 14.46 C 10.2 g/m*3 14.46 C 0 km/h
317 12-09-2010 04:00:00 14.1 C 10.07 g/m*3 14.1 C 0 km/h
318 12-09-2010 05:00:00 13.76 C 9.98 g/m*3 13.76 C 0 km/h
319 12-09-2010 06:00:00 13.52 C 9.93 g/m*3 13.52 C 0 km/h
320 12-09-2010 07:00:00 13.7 C 10.14 g/m*3 13.7 C 0 km/h
321 12-09-2010 08:00:00 14.26 C 10.3 g/m*3 14.26 C 0 km/h
322 12-09-2010 09:00:00 14.84 C 10.51 g/m*3 14.84 C 0 km/h
323 12-09-2010 10:00:00 16.94 C 11.16 g/m*3 16.94 C 0 km/h
324 12-09-2010 11:00:00 20.02 C 10.69 g/m*3 20.02 C 0 km/h
325 12-09-2010 12:00:00 21.62 C 10.75 g/m*3 21.62 C 0 km/h
Sensor: Nr:Datum:Temp:Abs-Feuchte:Windchill:Wind:
Aussen-T/F 326 12-09-2010 13:00:00 24.4 C 9.84 g/m*3 24.4 C 0 km/h
327 12-09-2010 14:00:00 23.86 C 9.2 g/m*3 23.86 C 0 km/h
328 12-09-2010 15:00:00 19.32 C 8.87 g/m*3 19.32 C 0 km/h
329 12-09-2010 16:00:00 17.78 C 9.19 g/m*3 17.78 C 0 km/h
330 12-09-2010 17:00:00 16.2 C 9.68 g/m*3 16.2 C 0 km/h
331 12-09-2010 18:00:00 14.92 C 10.59 g/m*3 14.92 C 0 km/h
332 12-09-2010 19:00:00 14.26 C 10.79 g/m*3 14.26 C 0 km/h
333 12-09-2010 20:00:00 13.82 C 10.81 g/m*3 13.82 C 0 km/h
334 12-09-2010 21:00:00 13.78 C 10.97 g/m*3 13.78 C 0 km/h
335 12-09-2010 22:00:00 13.78 C 11.07 g/m*3 13.78 C 0 km/h
336 12-09-2010 23:00:00 13.58 C 10.93 g/m*3 13.58 C 0 km/h
337 13-09-2010 00:00:00 13.68 C 11 g/m*3 13.68 C 0 km/h
338 13-09-2010 01:00:00 13.7 C 11.01 g/m*3 13.7 C 0 km/h
339 13-09-2010 02:00:00 13.52 C 10.89 g/m*3 13.52 C 0 km/h
340 13-09-2010 03:00:00 13.26 C 10.58 g/m*3 13.26 C 0 km/h
341 13-09-2010 04:00:00 13 C 10.21 g/m*3 13 C 0 km/h
342 13-09-2010 05:00:00 13.26 C 9.77 g/m*3 13.26 C 0 km/h
343 13-09-2010 06:00:00 13.3 C 9.57 g/m*3 13.3 C 0 km/h
344 13-09-2010 07:00:00 12.72 C 9.18 g/m*3 12.72 C 0 km/h
345 13-09-2010 08:00:00 13.04 C 9.62 g/m*3 13.04 C 0 km/h
346 13-09-2010 09:00:00 13.98 C 9.47 g/m*3 13.98 C 0 km/h
347 13-09-2010 10:00:00 15.32 C 9.05 g/m*3 15.32 C 0 km/h
348 13-09-2010 11:00:00 16.5 C 8.57 g/m*3 16.5 C 0 km/h
349 13-09-2010 12:00:00 17.24 C 7.93 g/m*3 17.24 C 0 km/h
350 13-09-2010 13:00:00 18.94 C 7.53 g/m*3 18.94 C 0 km/h
Sensor: Nr:Datum:Temp:Abs-Feuchte:Windchill:Wind:
Aussen-T/F 351 13-09-2010 14:00:00 20.18 C 6.95 g/m*3 20.18 C 0 km/h
352 13-09-2010 15:00:00 20.8 C 7.1 g/m*3 20.8 C 0 km/h
353 13-09-2010 16:00:00 21.56 C 6.93 g/m*3 21.56 C 0 km/h
354 13-09-2010 17:00:00 20.48 C 7.96 g/m*3 20.48 C 0 km/h
355 13-09-2010 18:00:00 18.22 C 8.62 g/m*3 18.22 C 0 km/h
356 13-09-2010 19:00:00 16.92 C 8.55 g/m*3 16.92 C 0 km/h
357 13-09-2010 20:00:00 15.24 C 8.9 g/m*3 15.24 C 0 km/h
358 13-09-2010 21:00:00 14.52 C 8.97 g/m*3 14.52 C 0 km/h
359 13-09-2010 22:00:00 13.7 C 8.86 g/m*3 13.7 C 0 km/h
360 13-09-2010 23:00:00 13.14 C 8.85 g/m*3 13.14 C 0 km/h
361 14-09-2010 00:00:00 12.82 C 9.2 g/m*3 12.82 C 0 km/h
362 14-09-2010 01:00:00 12.8 C 9.27 g/m*3 12.8 C 0 km/h
363 14-09-2010 02:00:00 13.1 C 9.33 g/m*3 13.1 C 0 km/h
364 14-09-2010 03:00:00 13.36 C 9.23 g/m*3 13.36 C 0 km/h
365 14-09-2010 04:00:00 12.94 C 9.42 g/m*3 12.94 C 0 km/h
366 14-09-2010 05:00:00 12.96 C 9.84 g/m*3 12.96 C 0 km/h
367 14-09-2010 06:00:00 13.9 C 9.28 g/m*3 13.9 C 0 km/h
368 14-09-2010 07:00:00 14.06 C 8.93 g/m*3 14.06 C 0 km/h
369 14-09-2010 08:00:00 14.1 C 9.32 g/m*3 14.1 C 0 km/h
370 14-09-2010 09:00:00 15.16 C 9.06 g/m*3 15.16 C 0 km/h
371 14-09-2010 10:00:00 16.1 C 9.07 g/m*3 16.1 C 0 km/h
372 14-09-2010 11:00:00 17.06 C 9.15 g/m*3 17.06 C 0 km/h
373 14-09-2010 12:00:00 18.44 C 9.18 g/m*3 18.44 C 0 km/h
374 14-09-2010 13:00:00 19.98 C 9.22 g/m*3 19.98 C 0 km/h
375 14-09-2010 14:00:00 19.66 C 8.84 g/m*3 19.66 C 0 km/h
Sensor: Nr:Datum:Temp:Abs-Feuchte:Windchill:Wind:
Aussen-T/F 376 14-09-2010 15:00:00 20.4 C 8.63 g/m*3 20.4 C 0 km/h
377 14-09-2010 16:00:00 20.68 C 7.88 g/m*3 20.68 C 0 km/h
378 14-09-2010 17:00:00 20.14 C 7.46 g/m*3 20.14 C 0 km/h
379 14-09-2010 18:00:00 19.34 C 7.81 g/m*3 19.34 C 0 km/h
380 14-09-2010 19:00:00 18.8 C 7.73 g/m*3 18.8 C 0 km/h
381 14-09-2010 20:00:00 18.6 C 7.7 g/m*3 18.6 C 0 km/h
382 14-09-2010 21:00:00 18.54 C 7.77 g/m*3 18.54 C 0 km/h
383 14-09-2010 22:00:00 18.5 C 7.83 g/m*3 18.5 C 0 km/h
384 14-09-2010 23:00:00 18.22 C 7.91 g/m*3 18.22 C 0 km/h
385 15-09-2010 00:00:00 18.02 C 7.87 g/m*3 18.02 C 0 km/h
386 15-09-2010 01:00:00 18.18 C 7.67 g/m*3 18.18 C 0 km/h
387 15-09-2010 02:00:00 18.32 C 7.64 g/m*3 18.32 C 0 km/h
388 15-09-2010 03:00:00 18.06 C 8.23 g/m*3 18.06 C 0 km/h
389 15-09-2010 04:00:00 17.7 C 9.11 g/m*3 17.7 C 0 km/h
390 15-09-2010 05:00:00 15 C 9.75 g/m*3 15 C 0 km/h
391 15-09-2010 06:00:00 12.78 C 10.09 g/m*3 12.78 C 0 km/h
392 15-09-2010 07:00:00 12.74 C 10.29 g/m*3 12.74 C 0 km/h
393 15-09-2010 08:00:00 12.7 C 10.35 g/m*3 12.7 C 0 km/h
394 15-09-2010 09:00:00 12.92 C 10.36 g/m*3 12.92 C 0 km/h
395 15-09-2010 10:00:00 14.06 C 9.95 g/m*3 14.06 C 0 km/h
396 15-09-2010 11:00:00 15.02 C 8.86 g/m*3 15.02 C 0 km/h
397 15-09-2010 12:00:00 16.5 C 7.02 g/m*3 16.5 C 0 km/h
398 15-09-2010 13:00:00 17.24 C 6.31 g/m*3 17.24 C 0 km/h
399 15-09-2010 14:00:00 18.38 C 5.66 g/m*3 18.38 C 0 km/h
400 15-09-2010 15:00:00 19.52 C 5.75 g/m*3 19.52 C 0 km/h
Sensor: Nr:Datum:Temp:Abs-Feuchte:Windchill:Wind:
Aussen-T/F 401 15-09-2010 16:00:00 19.52 C 5.98 g/m*3 19.52 C 0 km/h
402 15-09-2010 17:00:00 19.68 C 5.8 g/m*3 19.68 C 0 km/h
403 15-09-2010 18:00:00 17.84 C 5.32 g/m*3 17.84 C 0 km/h
404 15-09-2010 19:00:00 16.6 C 5.65 g/m*3 16.6 C 0 km/h
405 15-09-2010 20:00:00 15.84 C 6.26 g/m*3 15.84 C 0 km/h
406 15-09-2010 21:00:00 15.18 C 6.38 g/m*3 15.18 C 0 km/h
407 15-09-2010 22:00:00 14.96 C 5.96 g/m*3 14.96 C 0 km/h
408 15-09-2010 23:00:00 14.86 C 5.64 g/m*3 14.86 C 0 km/h
409 16-09-2010 00:00:00 14.18 C 5.9 g/m*3 14.18 C 0 km/h
410 16-09-2010 01:00:00 14.1 C 5.41 g/m*3 14.1 C 0 km/h
411 16-09-2010 02:00:00 13.94 C 5.79 g/m*3 13.94 C 0 km/h
412 16-09-2010 03:00:00 13.84 C 6.71 g/m*3 13.84 C 0 km/h
413 16-09-2010 04:00:00 13.58 C 6.98 g/m*3 13.58 C 0 km/h
414 16-09-2010 05:00:00 13.36 C 7.26 g/m*3 13.36 C 0 km/h
415 16-09-2010 06:00:00 12.44 C 8.08 g/m*3 12.44 C 0 km/h
416 16-09-2010 07:00:00 11.78 C 8.68 g/m*3 11.78 C 0 km/h
417 16-09-2010 08:00:00 11.86 C 8.83 g/m*3 11.86 C 0 km/h
418 16-09-2010 09:00:00 12.64 C 9.25 g/m*3 12.64 C 0 km/h
419 16-09-2010 10:00:00 14.12 C 8.65 g/m*3 14.12 C 0 km/h
420 16-09-2010 11:00:00 15.26 C 8.23 g/m*3 15.26 C 0 km/h
421 16-09-2010 12:00:00 17.02 C 7.68 g/m*3 17.02 C 0 km/h
422 16-09-2010 13:00:00 17.32 C 7.17 g/m*3 17.32 C 0 km/h
423 16-09-2010 14:00:00 15.28 C 8.71 g/m*3 15.28 C 0 km/h
424 16-09-2010 15:00:00 17.22 C 9.15 g/m*3 17.22 C 0 km/h
425 16-09-2010 16:00:00 16.36 C 8.49 g/m*3 16.36 C 0 km/h
Sensor: Nr:Datum:Temp:Abs-Feuchte:Windchill:Wind:
Aussen-T/F 426 16-09-2010 17:00:00 15.3 C 9.51 g/m*3 15.3 C 0 km/h
427 16-09-2010 18:00:00 14.9 C 8.95 g/m*3 14.9 C 0 km/h
428 16-09-2010 19:00:00 13.42 C 9.68 g/m*3 13.42 C 0 km/h
429 16-09-2010 20:00:00 12.84 C 10.02 g/m*3 12.84 C 0 km/h
430 16-09-2010 21:00:00 12.62 C 10.08 g/m*3 12.62 C 0 km/h
431 16-09-2010 22:00:00 12.2 C 9.58 g/m*3 12.2 C 0 km/h
432 16-09-2010 23:00:00 12.1 C 9.29 g/m*3 12.1 C 0 km/h
433 17-09-2010 00:00:00 12.16 C 9.24 g/m*3 12.16 C 0 km/h
434 17-09-2010 01:00:00 12.06 C 9.26 g/m*3 12.06 C 0 km/h
435 17-09-2010 02:00:00 11.96 C 9.29 g/m*3 11.96 C 0 km/h
436 17-09-2010 03:00:00 12.06 C 8.94 g/m*3 12.06 C 0 km/h
437 17-09-2010 04:00:00 11.94 C 8.73 g/m*3 11.94 C 0 km/h
438 17-09-2010 05:00:00 11.2 C 8.23 g/m*3 11.2 C 0 km/h
439 17-09-2010 06:00:00 10.6 C 8.59 g/m*3 10.6 C 0 km/h
440 17-09-2010 07:00:00 10.02 C 8.15 g/m*3 10.02 C 0 km/h
441 17-09-2010 08:00:00 10.22 C 7.66 g/m*3 10.22 C 0 km/h
442 17-09-2010 09:00:00 10.86 C 7.28 g/m*3 10.86 C 0 km/h
443 17-09-2010 10:00:00 12.06 C 7.55 g/m*3 12.06 C 0 km/h
444 17-09-2010 11:00:00 13.72 C 7.56 g/m*3 13.72 C 0 km/h
445 17-09-2010 12:00:00 15.7 C 6.58 g/m*3 15.7 C 0 km/h
446 17-09-2010 13:00:00 16.66 C 5.9 g/m*3 16.66 C 0 km/h
447 17-09-2010 14:00:00 17.62 C 5.29 g/m*3 17.62 C 0 km/h
448 17-09-2010 15:00:00 17.48 C 5.06 g/m*3 17.48 C 0 km/h
449 17-09-2010 16:00:00 19.06 C 4.94 g/m*3 19.06 C 0 km/h
450 17-09-2010 17:00:00 19.46 C 4.45 g/m*3 19.46 C 0 km/h
Sensor: Nr:Datum:Temp:Abs-Feuchte:Windchill:Wind:
Aussen-T/F 451 17-09-2010 18:00:00 16.66 C 6.1 g/m*3 16.66 C 0 km/h
452 17-09-2010 19:00:00 15.24 C 6.69 g/m*3 15.24 C 0 km/h
453 17-09-2010 20:00:00 14.26 C 7.06 g/m*3 14.26 C 0 km/h
454 17-09-2010 21:00:00 13.48 C 7.15 g/m*3 13.48 C 0 km/h
455 17-09-2010 22:00:00 13.34 C 6.72 g/m*3 13.34 C 0 km/h
456 17-09-2010 23:00:00 12.58 C 6.81 g/m*3 12.58 C 0 km/h
457 18-09-2010 00:00:00 12.12 C 6.94 g/m*3 12.12 C 0 km/h
458 18-09-2010 01:00:00 10.9 C 7 g/m*3 10.9 C 0 km/h
459 18-09-2010 02:00:00 10 C 7.2 g/m*3 10 C 0 km/h
460 18-09-2010 03:00:00 9.38 C 7.3 g/m*3 9.38 C 0 km/h
461 18-09-2010 04:00:00 8.54 C 7.19 g/m*3 8.54 C 0 km/h
462 18-09-2010 05:00:00 7.94 C 7.18 g/m*3 7.94 C 0 km/h
463 18-09-2010 06:00:00 7.62 C 7.36 g/m*3 7.62 C 0 km/h
464 18-09-2010 07:00:00 7.5 C 7.3 g/m*3 7.5 C 0 km/h
465 18-09-2010 08:00:00 7.46 C 7.23 g/m*3 7.46 C 0 km/h
466 18-09-2010 09:00:00 8.12 C 7.55 g/m*3 8.12 C 0 km/h
467 18-09-2010 10:00:00 10.2 C 8.18 g/m*3 10.2 C 0 km/h
468 18-09-2010 11:00:00 13.46 C 6.65 g/m*3 13.46 C 0 km/h
469 18-09-2010 12:00:00 15.14 C 5.92 g/m*3 15.14 C 0 km/h
470 18-09-2010 13:00:00 15.6 C 5.43 g/m*3 15.6 C 0 km/h
471 18-09-2010 14:00:00 15.26 C 4.77 g/m*3 15.26 C 0 km/h
472 18-09-2010 15:00:00 16.3 C 4.58 g/m*3 16.3 C 0 km/h
473 18-09-2010 16:00:00 16.22 C 4.86 g/m*3 16.22 C 0 km/h
474 18-09-2010 17:00:00 15.86 C 5.73 g/m*3 15.86 C 0 km/h
475 18-09-2010 18:00:00 15.66 C 6.06 g/m*3 15.66 C 0 km/h
Sensor: Nr:Datum:Temp:Abs-Feuchte:Windchill:Wind:
Aussen-T/F 476 18-09-2010 19:00:00 13.26 C 6.08 g/m*3 13.26 C 0 km/h
477 18-09-2010 20:00:00 11.08 C 6.6 g/m*3 11.08 C 0 km/h
478 18-09-2010 21:00:00 10.02 C 6.62 g/m*3 10.02 C 0 km/h
479 18-09-2010 22:00:00 8.98 C 6.69 g/m*3 8.98 C 0 km/h
480 18-09-2010 23:00:00 8.2 C 6.77 g/m*3 8.2 C 0 km/h
481 19-09-2010 00:00:00 7.56 C 6.72 g/m*3 7.56 C 0 km/h
482 19-09-2010 01:00:00 6.92 C 6.54 g/m*3 6.92 C 0 km/h
483 19-09-2010 02:00:00 6.44 C 6.53 g/m*3 6.44 C 0 km/h
484 19-09-2010 03:00:00 6.42 C 6.57 g/m*3 6.42 C 0 km/h
485 19-09-2010 04:00:00 6.2 C 6.5 g/m*3 6.2 C 0 km/h
486 19-09-2010 05:00:00 6.04 C 6.42 g/m*3 6.04 C 0 km/h
487 19-09-2010 06:00:00 5.76 C 6.33 g/m*3 5.76 C 0 km/h
488 19-09-2010 07:00:00 6 C 6.46 g/m*3 6 C 0 km/h
489 19-09-2010 08:00:00 6.96 C 6.79 g/m*3 6.96 C 0 km/h
490 19-09-2010 09:00:00 8.12 C 6.98 g/m*3 8.12 C 0 km/h
491 19-09-2010 10:00:00 10.72 C 6.69 g/m*3 10.72 C 0 km/h
492 19-09-2010 11:00:00 12.92 C 6.27 g/m*3 12.92 C 0 km/h
493 19-09-2010 12:00:00 14.94 C 5.67 g/m*3 14.94 C 0 km/h
494 19-09-2010 13:00:00 16.12 C 5.54 g/m*3 16.12 C 0 km/h
495 19-09-2010 14:00:00 17.38 C 5.68 g/m*3 17.38 C 0 km/h
496 19-09-2010 15:00:00 18.62 C 5.45 g/m*3 18.62 C 0 km/h
497 19-09-2010 16:00:00 19.04 C 5.29 g/m*3 19.04 C 0 km/h
498 19-09-2010 17:00:00 18.78 C 5.69 g/m*3 18.78 C 0 km/h
499 19-09-2010 18:00:00 17.08 C 5.99 g/m*3 17.08 C 0 km/h
500 19-09-2010 19:00:00 15.78 C 5.97 g/m*3 15.78 C 0 km/h
Sensor: Nr:Datum:Temp:Abs-Feuchte:Windchill:Wind:
Aussen-T/F 501 19-09-2010 20:00:00 14.46 C 6.3 g/m*3 14.46 C 0 km/h
502 19-09-2010 21:00:00 13.96 C 6.62 g/m*3 13.96 C 0 km/h
503 19-09-2010 22:00:00 13.32 C 6.78 g/m*3 13.32 C 0 km/h
504 19-09-2010 23:00:00 12.28 C 6.77 g/m*3 12.28 C 0 km/h
505 20-09-2010 00:00:00 11.68 C 6.87 g/m*3 11.68 C 0 km/h
506 20-09-2010 01:00:00 10.44 C 6.78 g/m*3 10.44 C 0 km/h
507 20-09-2010 02:00:00 9.84 C 6.88 g/m*3 9.84 C 0 km/h
508 20-09-2010 03:00:00 9.64 C 7.02 g/m*3 9.64 C 0 km/h
509 20-09-2010 04:00:00 8.98 C 6.89 g/m*3 8.98 C 0 km/h
510 20-09-2010 05:00:00 8.32 C 6.89 g/m*3 8.32 C 0 km/h
511 20-09-2010 06:00:00 8.48 C 7.03 g/m*3 8.48 C 0 km/h
512 20-09-2010 07:00:00 8.52 C 7.1 g/m*3 8.52 C 0 km/h
513 20-09-2010 08:00:00 9.18 C 6.87 g/m*3 9.18 C 0 km/h
514 20-09-2010 09:00:00 9.84 C 6.92 g/m*3 9.84 C 0 km/h
515 20-09-2010 10:00:00 12.4 C 7.21 g/m*3 12.4 C 0 km/h
516 20-09-2010 11:00:00 14.62 C 6.99 g/m*3 14.62 C 0 km/h
517 20-09-2010 12:00:00 16.26 C 6.34 g/m*3 16.26 C 0 km/h
518 20-09-2010 13:00:00 18.02 C 6.12 g/m*3 18.02 C 0 km/h
519 20-09-2010 14:00:00 20.02 C 5.81 g/m*3 20.02 C 0 km/h
520 20-09-2010 15:00:00 21.42 C 5.86 g/m*3 21.42 C 0 km/h
521 20-09-2010 16:00:00 22.46 C 6.22 g/m*3 22.46 C 0 km/h
522 20-09-2010 17:00:00 22.28 C 6.11 g/m*3 22.28 C 0 km/h
523 20-09-2010 18:00:00 21.3 C 6.67 g/m*3 21.3 C 0 km/h
524 20-09-2010 19:00:00 17.5 C 7.19 g/m*3 17.5 C 0 km/h
525 20-09-2010 20:00:00 15.34 C 7.54 g/m*3 15.34 C 0 km/h
Sensor: Nr:Datum:Temp:Abs-Feuchte:Windchill:Wind:
Aussen-T/F 526 20-09-2010 21:00:00 14.2 C 7.72 g/m*3 14.2 C 0 km/h
527 20-09-2010 22:00:00 13.22 C 8.07 g/m*3 13.22 C 0 km/h
528 20-09-2010 23:00:00 12.28 C 8.05 g/m*3 12.28 C 0 km/h
529 21-09-2010 00:00:00 11.52 C 7.88 g/m*3 11.52 C 0 km/h
530 21-09-2010 01:00:00 10.9 C 7.8 g/m*3 10.9 C 0 km/h
531 21-09-2010 02:00:00 10.24 C 7.69 g/m*3 10.24 C 0 km/h
532 21-09-2010 03:00:00 9.74 C 7.71 g/m*3 9.74 C 0 km/h
533 21-09-2010 04:00:00 9.22 C 7.51 g/m*3 9.22 C 0 km/h
534 21-09-2010 05:00:00 8.78 C 7.46 g/m*3 8.78 C 0 km/h
535 21-09-2010 06:00:00 8.34 C 7.37 g/m*3 8.34 C 0 km/h
536 21-09-2010 07:00:00 8.14 C 7.34 g/m*3 8.14 C 0 km/h
537 21-09-2010 08:00:00 8.26 C 7.53 g/m*3 8.26 C 0 km/h
538 21-09-2010 09:00:00 9.18 C 7.97 g/m*3 9.18 C 0 km/h
539 21-09-2010 10:00:00 11.12 C 8.71 g/m*3 11.12 C 0 km/h
540 21-09-2010 11:00:00 14.12 C 8.65 g/m*3 14.12 C 0 km/h
541 21-09-2010 12:00:00 16.14 C 8.99 g/m*3 16.14 C 0 km/h
542 21-09-2010 13:00:00 17.02 C 9.65 g/m*3 17.02 C 0 km/h
543 21-09-2010 14:00:00 17.82 C 9.48 g/m*3 17.82 C 0 km/h
544 21-09-2010 15:00:00 23.12 C 8.2 g/m*3 23.12 C 0 km/h
545 21-09-2010 16:00:00 25.16 C 7.62 g/m*3 25.16 C 0 km/h
546 21-09-2010 17:00:00 24.6 C 7.56 g/m*3 24.6 C 0 km/h
547 21-09-2010 18:00:00 22.18 C 7.88 g/m*3 22.18 C 0 km/h
548 21-09-2010 19:00:00 18.64 C 8.36 g/m*3 18.64 C 0 km/h
549 21-09-2010 20:00:00 16.3 C 8.52 g/m*3 16.3 C 0 km/h
550 21-09-2010 21:00:00 15.06 C 8.49 g/m*3 15.06 C 0 km/h
Sensor: Nr:Datum:Temp:Abs-Feuchte:Windchill:Wind:
Aussen-T/F 551 21-09-2010 22:00:00 13.9 C 8.51 g/m*3 13.9 C 0 km/h
552 21-09-2010 23:00:00 12.98 C 8.54 g/m*3 12.98 C 0 km/h
553 22-09-2010 00:00:00 12.2 C 8.55 g/m*3 12.2 C 0 km/h
554 22-09-2010 01:00:00 11.5 C 8.41 g/m*3 11.5 C 0 km/h
555 22-09-2010 02:00:00 10.78 C 8.15 g/m*3 10.78 C 0 km/h
556 22-09-2010 03:00:00 10.22 C 8 g/m*3 10.22 C 0 km/h
557 22-09-2010 04:00:00 9.72 C 7.94 g/m*3 9.72 C 0 km/h
558 22-09-2010 05:00:00 9.84 C 8.15 g/m*3 9.84 C 0 km/h
559 22-09-2010 06:00:00 9.78 C 8.15 g/m*3 9.78 C 0 km/h
560 22-09-2010 07:00:00 9.56 C 8.04 g/m*3 9.56 C 0 km/h
561 22-09-2010 08:00:00 9.36 C 7.96 g/m*3 9.36 C 0 km/h
562 22-09-2010 09:00:00 10.18 C 8.15 g/m*3 10.18 C 0 km/h
563 22-09-2010 10:00:00 12.42 C 8.64 g/m*3 12.42 C 0 km/h
564 22-09-2010 11:00:00 13.78 C 9.19 g/m*3 13.78 C 0 km/h
565 22-09-2010 12:00:00 16.54 C 9.97 g/m*3 16.54 C 0 km/h
566 22-09-2010 13:00:00 19.76 C 10.09 g/m*3 19.76 C 0 km/h
567 22-09-2010 14:00:00 22.86 C 10.07 g/m*3 22.86 C 0 km/h
568 22-09-2010 15:00:00 25.06 C 9.29 g/m*3 25.06 C 0 km/h
569 22-09-2010 16:00:00 27.32 C 8.59 g/m*3 27.32 C 0 km/h
570 22-09-2010 17:00:00 27.06 C 8.16 g/m*3 27.06 C 0 km/h
571 22-09-2010 18:00:00 24.88 C 9.1 g/m*3 24.88 C 0 km/h
572 22-09-2010 19:00:00 20.88 C 9.2 g/m*3 20.88 C 0 km/h
573 22-09-2010 20:00:00 18.54 C 9.1 g/m*3 18.54 C 0 km/h
574 22-09-2010 21:00:00 17.46 C 9.31 g/m*3 17.46 C 0 km/h
575 22-09-2010 22:00:00 16.18 C 9.26 g/m*3 16.18 C 0 km/h
Sensor: Nr:Datum:Temp:Abs-Feuchte:Windchill:Wind:
Aussen-T/F 576 22-09-2010 23:00:00 14.92 C 8.78 g/m*3 14.92 C 0 km/h
577 23-09-2010 00:00:00 14.02 C 8.65 g/m*3 14.02 C 0 km/h
578 23-09-2010 01:00:00 13.22 C 8.71 g/m*3 13.22 C 0 km/h
579 23-09-2010 02:00:00 12.44 C 8.7 g/m*3 12.44 C 0 km/h
580 23-09-2010 03:00:00 11.8 C 8.57 g/m*3 11.8 C 0 km/h
581 23-09-2010 04:00:00 11.16 C 8.39 g/m*3 11.16 C 0 km/h
582 23-09-2010 05:00:00 10.64 C 8.22 g/m*3 10.64 C 0 km/h
583 23-09-2010 06:00:00 10.46 C 8.2 g/m*3 10.46 C 0 km/h
584 23-09-2010 07:00:00 10.52 C 8.25 g/m*3 10.52 C 0 km/h
585 23-09-2010 08:00:00 10.88 C 8.42 g/m*3 10.88 C 0 km/h
586 23-09-2010 09:00:00 11.64 C 8.65 g/m*3 11.64 C 0 km/h
587 23-09-2010 10:00:00 12.98 C 9.24 g/m*3 12.98 C 0 km/h
588 23-09-2010 11:00:00 15.64 C 10.08 g/m*3 15.64 C 0 km/h
589 23-09-2010 12:00:00 18.66 C 10.61 g/m*3 18.66 C 0 km/h
590 23-09-2010 13:00:00 22.3 C 10.7 g/m*3 22.3 C 0 km/h
591 23-09-2010 14:00:00 24.06 C 10.22 g/m*3 24.06 C 0 km/h
592 23-09-2010 15:00:00 25.04 C 9.37 g/m*3 25.04 C 0 km/h
593 23-09-2010 16:00:00 25.14 C 9.88 g/m*3 25.14 C 0 km/h
594 23-09-2010 17:00:00 23.48 C 10.73 g/m*3 23.48 C 0 km/h
595 23-09-2010 18:00:00 22.12 C 10.63 g/m*3 22.12 C 0 km/h
596 23-09-2010 19:00:00 19.9 C 11.06 g/m*3 19.9 C 0 km/h
597 23-09-2010 20:00:00 18.5 C 11.3 g/m*3 18.5 C 0 km/h
598 23-09-2010 21:00:00 18.5 C 11.49 g/m*3 18.5 C 0 km/h
599 23-09-2010 22:00:00 17.94 C 11.82 g/m*3 17.94 C 0 km/h
600 23-09-2010 23:00:00 16.44 C 12.26 g/m*3 16.44 C 0 km/h
Sensor: Nr:Datum:Temp:Abs-Feuchte:Windchill:Wind:
Aussen-T/F 601 24-09-2010 00:00:00 15.7 C 12.18 g/m*3 15.7 C 0 km/h
602 24-09-2010 01:00:00 15.54 C 12.3 g/m*3 15.54 C 0 km/h
603 24-09-2010 02:00:00 15.38 C 12.15 g/m*3 15.38 C 0 km/h
604 24-09-2010 03:00:00 14.94 C 11.91 g/m*3 14.94 C 0 km/h
605 24-09-2010 04:00:00 14.78 C 11.89 g/m*3 14.78 C 0 km/h
606 24-09-2010 05:00:00 14.54 C 11.72 g/m*3 14.54 C 0 km/h
607 24-09-2010 06:00:00 14.7 C 11.83 g/m*3 14.7 C 0 km/h
608 24-09-2010 07:00:00 14.4 C 11.62 g/m*3 14.4 C 0 km/h
609 24-09-2010 08:00:00 14.58 C 11.82 g/m*3 14.58 C 0 km/h
610 24-09-2010 09:00:00 14.88 C 12.07 g/m*3 14.88 C 0 km/h
611 24-09-2010 10:00:00 14.98 C 12.06 g/m*3 14.98 C 0 km/h
612 24-09-2010 11:00:00 15.22 C 12.22 g/m*3 15.22 C 0 km/h
613 24-09-2010 12:00:00 15.14 C 12.18 g/m*3 15.14 C 0 km/h
614 24-09-2010 13:00:00 14.56 C 11.73 g/m*3 14.56 C 0 km/h
615 24-09-2010 14:00:00 13.54 C 11.02 g/m*3 13.54 C 0 km/h
616 24-09-2010 15:00:00 13.08 C 10.8 g/m*3 13.08 C 0 km/h
617 24-09-2010 16:00:00 13.8 C 11.32 g/m*3 13.8 C 0 km/h
618 24-09-2010 17:00:00 13.48 C 11.03 g/m*3 13.48 C 0 km/h
619 24-09-2010 18:00:00 13.26 C 10.83 g/m*3 13.26 C 0 km/h
620 24-09-2010 19:00:00 12.84 C 10.64 g/m*3 12.84 C 0 km/h
621 24-09-2010 20:00:00 12.7 C 10.58 g/m*3 12.7 C 0 km/h
622 24-09-2010 21:00:00 12.82 C 10.65 g/m*3 12.82 C 0 km/h
623 24-09-2010 22:00:00 12.7 C 10.58 g/m*3 12.7 C 0 km/h
624 24-09-2010 23:00:00 12.4 C 10.38 g/m*3 12.4 C 0 km/h
625 25-09-2010 00:00:00 12.48 C 10.43 g/m*3 12.48 C 0 km/h
Sensor: Nr:Datum:Temp:Abs-Feuchte:Windchill:Wind:
Aussen-T/F 626 25-09-2010 01:00:00 12.52 C 10.46 g/m*3 12.52 C 0 km/h
627 25-09-2010 02:00:00 12.6 C 10.51 g/m*3 12.6 C 0 km/h
628 25-09-2010 03:00:00 12.62 C 10.52 g/m*3 12.62 C 0 km/h
629 25-09-2010 04:00:00 12.54 C 10.47 g/m*3 12.54 C 0 km/h
630 25-09-2010 05:00:00 12.38 C 10.35 g/m*3 12.38 C 0 km/h
631 25-09-2010 06:00:00 12.06 C 10.06 g/m*3 12.06 C 0 km/h
632 25-09-2010 07:00:00 11.88 C 9.94 g/m*3 11.88 C 0 km/h
633 25-09-2010 08:00:00 11.26 C 9.5 g/m*3 11.26 C 0 km/h
634 25-09-2010 09:00:00 10.48 C 8.81 g/m*3 10.48 C 0 km/h
635 25-09-2010 10:00:00 11.04 C 8.25 g/m*3 11.04 C 0 km/h
636 25-09-2010 11:00:00 12.3 C 7.45 g/m*3 12.3 C 0 km/h
637 25-09-2010 12:00:00 12.44 C 6.9 g/m*3 12.44 C 0 km/h
638 25-09-2010 13:00:00 13.26 C 6.04 g/m*3 13.26 C 0 km/h
639 25-09-2010 14:00:00 14.24 C 5.36 g/m*3 14.24 C 0 km/h
640 25-09-2010 15:00:00 15.04 C 4.68 g/m*3 15.04 C 0 km/h
641 25-09-2010 16:00:00 14.72 C 4.97 g/m*3 14.72 C 0 km/h
642 25-09-2010 17:00:00 15.6 C 5.08 g/m*3 15.6 C 0 km/h
643 25-09-2010 18:00:00 14.22 C 5.06 g/m*3 14.22 C 0 km/h
644 25-09-2010 19:00:00 12.98 C 5.75 g/m*3 12.98 C 0 km/h
645 25-09-2010 20:00:00 11.7 C 5.88 g/m*3 11.7 C 0 km/h
646 25-09-2010 21:00:00 10.12 C 6.31 g/m*3 10.12 C 0 km/h
647 25-09-2010 22:00:00 10.28 C 6.68 g/m*3 10.28 C 0 km/h
648 25-09-2010 23:00:00 9.28 C 7.4 g/m*3 9.28 C 0 km/h
649 26-09-2010 00:00:00 9.44 C 7.76 g/m*3 9.44 C 0 km/h
650 26-09-2010 01:00:00 9.48 C 7.24 g/m*3 9.48 C 0 km/h
Sensor: Nr:Datum:Temp:Abs-Feuchte:Windchill:Wind:
Aussen-T/F 651 26-09-2010 02:00:00 9.42 C 7.05 g/m*3 9.42 C 0 km/h
652 26-09-2010 03:00:00 9.2 C 7.07 g/m*3 9.2 C 0 km/h
653 26-09-2010 04:00:00 8.88 C 7.28 g/m*3 8.88 C 0 km/h
654 26-09-2010 05:00:00 9.02 C 7.33 g/m*3 9.02 C 0 km/h
655 26-09-2010 06:00:00 8.9 C 7.38 g/m*3 8.9 C 0 km/h
656 26-09-2010 07:00:00 8.8 C 7.45 g/m*3 8.8 C 0 km/h
657 26-09-2010 08:00:00 9.62 C 7.3 g/m*3 9.62 C 0 km/h
658 26-09-2010 09:00:00 10.26 C 7.18 g/m*3 10.26 C 0 km/h
659 26-09-2010 10:00:00 11.84 C 6.75 g/m*3 11.84 C 0 km/h
660 26-09-2010 11:00:00 13.22 C 6.44 g/m*3 13.22 C 0 km/h
661 26-09-2010 12:00:00 14.48 C 6.39 g/m*3 14.48 C 0 km/h
662 26-09-2010 13:00:00 13 C 7.58 g/m*3 13 C 0 km/h
663 26-09-2010 14:00:00 13.3 C 8.3 g/m*3 13.3 C 0 km/h
664 26-09-2010 15:00:00 14.18 C 8.12 g/m*3 14.18 C 0 km/h
665 26-09-2010 16:00:00 14.92 C 7.04 g/m*3 14.92 C 0 km/h
666 26-09-2010 17:00:00 15.18 C 6.61 g/m*3 15.18 C 0 km/h
667 26-09-2010 18:00:00 12.96 C 6.95 g/m*3 12.96 C 0 km/h
668 26-09-2010 19:00:00 12.24 C 7.1 g/m*3 12.24 C 0 km/h
669 26-09-2010 20:00:00 11.78 C 7.21 g/m*3 11.78 C 0 km/h
670 26-09-2010 21:00:00 11.16 C 7.12 g/m*3 11.16 C 0 km/h
671 26-09-2010 22:00:00 9.7 C 7.06 g/m*3 9.7 C 0 km/h
672 26-09-2010 23:00:00 8.84 C 7.17 g/m*3 8.84 C 0 km/h
673 27-09-2010 00:00:00 8.12 C 7.07 g/m*3 8.12 C 0 km/h
674 27-09-2010 01:00:00 7.46 C 7.04 g/m*3 7.46 C 0 km/h
675 27-09-2010 02:00:00 6.84 C 6.86 g/m*3 6.84 C 0 km/h
Sensor: Nr:Datum:Temp:Abs-Feuchte:Windchill:Wind:
Aussen-T/F 676 27-09-2010 03:00:00 6.46 C 6.75 g/m*3 6.46 C 0 km/h
677 27-09-2010 04:00:00 6.24 C 6.8 g/m*3 6.24 C 0 km/h
678 27-09-2010 05:00:00 6.24 C 6.83 g/m*3 6.24 C 0 km/h
679 27-09-2010 06:00:00 6.32 C 6.89 g/m*3 6.32 C 0 km/h
680 27-09-2010 07:00:00 6.74 C 7.13 g/m*3 6.74 C 0 km/h
681 27-09-2010 08:00:00 7.7 C 7.61 g/m*3 7.7 C 0 km/h
682 27-09-2010 09:00:00 9.24 C 8.2 g/m*3 9.24 C 0 km/h
683 27-09-2010 10:00:00 10.76 C 7.57 g/m*3 10.76 C 0 km/h
684 27-09-2010 11:00:00 11.98 C 6.79 g/m*3 11.98 C 0 km/h
685 27-09-2010 12:00:00 12.78 C 6.82 g/m*3 12.78 C 0 km/h
686 27-09-2010 13:00:00 13.48 C 6.73 g/m*3 13.48 C 0 km/h
687 27-09-2010 14:00:00 13.26 C 6.66 g/m*3 13.26 C 0 km/h
688 27-09-2010 15:00:00 13.4 C 6.65 g/m*3 13.4 C 0 km/h
689 27-09-2010 16:00:00 13.38 C 7.2 g/m*3 13.38 C 0 km/h
690 27-09-2010 17:00:00 12.9 C 7.69 g/m*3 12.9 C 0 km/h
691 27-09-2010 18:00:00 11.94 C 7.73 g/m*3 11.94 C 0 km/h
692 27-09-2010 19:00:00 10.58 C 8.13 g/m*3 10.58 C 0 km/h
693 27-09-2010 20:00:00 10.3 C 8.39 g/m*3 10.3 C 0 km/h
694 27-09-2010 21:00:00 10.34 C 8.55 g/m*3 10.34 C 0 km/h
695 27-09-2010 22:00:00 10.3 C 8.6 g/m*3 10.3 C 0 km/h
696 27-09-2010 23:00:00 10.16 C 8.64 g/m*3 10.16 C 0 km/h
697 28-09-2010 00:00:00 10 C 8.68 g/m*3 10 C 0 km/h
698 28-09-2010 01:00:00 9.98 C 8.75 g/m*3 9.98 C 0 km/h
699 28-09-2010 02:00:00 9.9 C 8.78 g/m*3 9.9 C 0 km/h
700 28-09-2010 03:00:00 9.9 C 8.87 g/m*3 9.9 C 0 km/h
Sensor: Nr:Datum:Temp:Abs-Feuchte:Windchill:Wind:
Aussen-T/F 701 28-09-2010 04:00:00 9.92 C 8.86 g/m*3 9.92 C 0 km/h
702 28-09-2010 05:00:00 10 C 8.93 g/m*3 10 C 0 km/h
703 28-09-2010 06:00:00 10.08 C 8.97 g/m*3 10.08 C 0 km/h
704 28-09-2010 07:00:00 10 C 8.93 g/m*3 10 C 0 km/h
705 28-09-2010 08:00:00 10.04 C 8.95 g/m*3 10.04 C 0 km/h
706 28-09-2010 09:00:00 10.24 C 9.06 g/m*3 10.24 C 0 km/h
707 28-09-2010 10:00:00 10.58 C 9.26 g/m*3 10.58 C 0 km/h
708 28-09-2010 11:00:00 11.18 C 9.62 g/m*3 11.18 C 0 km/h
709 28-09-2010 12:00:00 11.48 C 9.72 g/m*3 11.48 C 0 km/h
710 28-09-2010 13:00:00 11.74 C 9.71 g/m*3 11.74 C 0 km/h
711 28-09-2010 14:00:00 11.76 C 9.66 g/m*3 11.76 C 0 km/h
712 28-09-2010 15:00:00 11.74 C 9.73 g/m*3 11.74 C 0 km/h
713 28-09-2010 16:00:00 11.84 C 9.85 g/m*3 11.84 C 0 km/h
714 28-09-2010 17:00:00 11.98 C 10.01 g/m*3 11.98 C 0 km/h
715 28-09-2010 18:00:00 11.86 C 9.99 g/m*3 11.86 C 0 km/h
716 28-09-2010 19:00:00 11.72 C 9.95 g/m*3 11.72 C 0 km/h
717 28-09-2010 20:00:00 11.6 C 9.87 g/m*3 11.6 C 0 km/h
718 28-09-2010 21:00:00 11.58 C 9.86 g/m*3 11.58 C 0 km/h
719 28-09-2010 22:00:00 11.62 C 9.89 g/m*3 11.62 C 0 km/h
720 28-09-2010 23:00:00 11.6 C 9.87 g/m*3 11.6 C 0 km/h
721 29-09-2010 00:00:00 11.64 C 9.9 g/m*3 11.64 C 0 km/h
722 29-09-2010 01:00:00 11.62 C 9.89 g/m*3 11.62 C 0 km/h
723 29-09-2010 02:00:00 11.56 C 9.85 g/m*3 11.56 C 0 km/h
724 29-09-2010 03:00:00 11.48 C 9.8 g/m*3 11.48 C 0 km/h
725 29-09-2010 04:00:00 11.48 C 9.8 g/m*3 11.48 C 0 km/h
Sensor: Nr:Datum:Temp:Abs-Feuchte:Windchill:Wind:
Aussen-T/F 726 29-09-2010 05:00:00 11.4 C 9.75 g/m*3 11.4 C 0 km/h
727 29-09-2010 06:00:00 11.52 C 9.82 g/m*3 11.52 C 0 km/h
728 29-09-2010 07:00:00 11.04 C 9.53 g/m*3 11.04 C 0 km/h
729 29-09-2010 08:00:00 11.18 C 9.62 g/m*3 11.18 C 0 km/h
730 29-09-2010 09:00:00 11.44 C 9.57 g/m*3 11.44 C 0 km/h
731 29-09-2010 10:00:00 12.92 C 8.98 g/m*3 12.92 C 0 km/h
732 29-09-2010 11:00:00 13.96 C 8.42 g/m*3 13.96 C 0 km/h
733 29-09-2010 12:00:00 14.4 C 8.03 g/m*3 14.4 C 0 km/h
734 29-09-2010 13:00:00 15.74 C 7.89 g/m*3 15.74 C 0 km/h
735 29-09-2010 14:00:00 16.82 C 7.64 g/m*3 16.82 C 0 km/h
736 29-09-2010 15:00:00 19.16 C 6.88 g/m*3 19.16 C 0 km/h
737 29-09-2010 16:00:00 18.14 C 7.62 g/m*3 18.14 C 0 km/h
738 29-09-2010 17:00:00 18.3 C 7.54 g/m*3 18.3 C 0 km/h
739 29-09-2010 18:00:00 14.62 C 7.84 g/m*3 14.62 C 0 km/h
740 29-09-2010 19:00:00 13.08 C 7.68 g/m*3 13.08 C 0 km/h
741 29-09-2010 20:00:00 13.12 C 7.7 g/m*3 13.12 C 0 km/h
742 29-09-2010 21:00:00 12.5 C 7.94 g/m*3 12.5 C 0 km/h
743 29-09-2010 22:00:00 12.38 C 8.36 g/m*3 12.38 C 0 km/h
744 29-09-2010 23:00:00 11.96 C 8.33 g/m*3 11.96 C 0 km/h

Maximal/Minimal-Werte vom 23.02.2003 - 30.09.2020

Sensor Min Max Avg
Temp
(Aussen-T/F)
-16.4 °C
20-12-2009  01:30:01
40.4 °C
25-07-2019  16:20:00
11.32 °C

Die Daten stammen von einer Davis Vantage Pro 2 Wetter-Station und werden unter Linux mit der Software wview2wettercgi und aufbereitet. Alle Angaben erfolgen ohne Gewähr für ihre Vollständigkeit oder Richtigkeit.
Kontakt: Rainer Krienke krienke@uni-koblenz.de . Meine Webseiten an der Uni Koblenz oder privat.
Version: $Revision: 0.78 $